Time;durP1;ratioP1;P1;durP2;ratioP2;P2;SDS_P1;SDS_P2;PMS_P1;PMS_P2;Temp;Humidity;BMP_temperature;BMP_pressure;BME280_temperature;BME280_humidity;BME280_pressure;Samples;Min_cycle;Max_cycle;Signal;HPM_P1;HPM_P2
2024/01/06 00:01:47;;;;;;;14.75;4.85;;;;;;;8.08;100.00;100369.97;5263957;27;20020;-75
2024/01/06 00:04:18;;;;;;;16.80;4.38;;;;;;;8.07;100.00;100371.81;5262254;28;20634;-75
2024/01/06 00:06:48;;;;;;;13.20;4.40;;;;;;;8.08;100.00;100369.97;5268148;28;20038;-75
2024/01/06 00:09:19;;;;;;;13.90;4.47;;;;;;;8.04;100.00;100370.31;5268425;28;20024;-76
2024/01/06 00:11:49;;;;;;;17.83;3.95;;;;;;;8.09;100.00;100375.16;5268553;28;20093;-75
2024/01/06 00:14:20;;;;;;;16.80;4.25;;;;;;;8.04;100.00;100377.47;5270090;28;20024;-75
2024/01/06 00:16:50;;;;;;;15.50;4.85;;;;;;;8.05;100.00;100376.47;5268224;28;20495;-75
2024/01/06 00:19:21;;;;;;;14.18;4.47;;;;;;;8.06;100.00;100380.81;5269449;28;20032;-75
2024/01/06 00:21:51;;;;;;;24.50;4.18;;;;;;;8.07;100.00;100382.47;5270261;28;20501;-75
2024/01/06 00:24:22;;;;;;;12.98;4.78;;;;;;;8.03;100.00;100382.00;5265804;28;20049;-75
2024/01/06 00:26:52;;;;;;;14.73;6.07;;;;;;;8.09;100.00;100380.50;5266286;28;20028;-75
2024/01/06 00:29:23;;;;;;;15.60;5.80;;;;;;;8.05;100.00;100385.31;5272211;28;20028;-75
2024/01/06 00:31:53;;;;;;;16.85;5.65;;;;;;;8.05;100.00;100390.66;5267344;28;20028;-75
2024/01/06 00:34:24;;;;;;;21.17;6.30;;;;;;;8.02;100.00;100385.63;5268704;28;20115;-75
2024/01/06 00:36:54;;;;;;;24.02;5.85;;;;;;;8.02;100.00;100396.31;5272047;28;20020;-76
2024/01/06 00:39:25;;;;;;;16.58;5.93;;;;;;;8.02;100.00;100387.47;5263736;28;20023;-76
2024/01/06 00:41:55;;;;;;;24.15;6.28;;;;;;;8.08;100.00;100399.34;5269407;27;20103;-76
2024/01/06 00:44:26;;;;;;;19.58;6.88;;;;;;;8.10;100.00;100400.03;5268142;28;20059;-75
2024/01/06 00:46:56;;;;;;;21.17;6.55;;;;;;;8.05;100.00;100397.84;5269952;28;20020;-75
2024/01/06 00:49:27;;;;;;;16.40;6.63;;;;;;;8.05;100.00;100404.03;5261138;28;20031;-75
2024/01/06 00:51:57;;;;;;;20.52;6.40;;;;;;;8.02;100.00;100392.81;5269064;28;20024;-75
2024/01/06 00:54:28;;;;;;;18.70;6.10;;;;;;;8.09;100.00;100398.38;5271265;28;20462;-75
2024/01/06 00:56:59;;;;;;;30.45;6.95;;;;;;;8.10;100.00;100395.53;5264865;28;20421;-74
2024/01/06 00:59:29;;;;;;;19.70;6.35;;;;;;;8.12;100.00;100401.53;5267125;28;20035;-75
2024/01/06 01:02:00;;;;;;;21.98;6.88;;;;;;;8.09;100.00;100390.38;5266853;28;20081;-75
2024/01/06 01:04:30;;;;;;;19.77;6.20;;;;;;;8.08;100.00;100392.16;5266721;28;20028;-75
2024/01/06 01:07:01;;;;;;;15.82;6.00;;;;;;;8.10;100.00;100402.72;5267933;28;20028;-75
2024/01/06 01:09:31;;;;;;;20.90;6.53;;;;;;;8.07;100.00;100403.03;5268465;28;20040;-75
2024/01/06 01:12:02;;;;;;;15.43;5.20;;;;;;;8.04;100.00;100402.38;5265585;28;20030;-75
2024/01/06 01:14:32;;;;;;;21.73;5.95;;;;;;;8.09;100.00;100398.38;5268508;28;20442;-75
2024/01/06 01:17:04;;;;;;;24.00;7.82;;;;;;;8.07;100.00;100405.69;5267673;28;20034;-75
2024/01/06 01:19:34;;;;;;;14.40;5.25;;;;;;;8.06;100.00;100407.53;5267655;28;20024;-75
2024/01/06 01:22:05;;;;;;;17.40;5.30;;;;;;;8.05;100.00;100405.88;5268264;28;20019;-76
2024/01/06 01:24:35;;;;;;;20.33;5.57;;;;;;;8.01;100.00;100416.03;5266292;28;20019;-76
2024/01/06 01:27:06;;;;;;;18.15;6.00;;;;;;;8.02;100.00;100414.19;5266592;28;20085;-74
2024/01/06 01:29:36;;;;;;;11.50;5.53;;;;;;;8.02;100.00;100419.53;5266080;28;20028;-74
2024/01/06 01:32:07;;;;;;;11.75;5.45;;;;;;;8.02;100.00;100415.03;5266283;28;20036;-75
2024/01/06 01:34:37;;;;;;;19.90;5.82;;;;;;;8.01;100.00;100429.38;5266645;28;20501;-75
2024/01/06 01:37:08;;;;;;;16.63;6.30;;;;;;;7.99;100.00;100426.06;5266821;28;20110;-75
2024/01/06 01:39:38;;;;;;;14.38;5.60;;;;;;;8.03;100.00;100431.88;5263045;28;20105;-75
2024/01/06 01:42:09;;;;;;;13.25;6.22;;;;;;;8.05;100.00;100429.91;5265924;28;20111;-75
2024/01/06 01:44:39;;;;;;;14.00;6.10;;;;;;;8.04;100.00;100445.09;5267039;28;20054;-75
2024/01/06 01:47:11;;;;;;;12.38;6.05;;;;;;;8.05;100.00;100438.75;5266204;28;20441;-75
2024/01/06 01:49:41;;;;;;;14.57;6.30;;;;;;;8.01;100.00;100450.75;5267633;28;20031;-76
2024/01/06 01:52:13;;;;;;;15.63;5.63;;;;;;;8.03;100.00;100454.13;5264311;28;20039;-76
2024/01/06 01:54:45;;;;;;;13.23;6.55;;;;;;;8.02;100.00;100459.59;5266938;28;20022;-75
2024/01/06 01:57:16;;;;;;;20.02;6.43;;;;;;;8.04;100.00;100466.47;5266284;28;20111;-75
2024/01/06 01:59:47;;;;;;;19.15;6.60;;;;;;;8.01;100.00;100461.44;5269718;28;20035;-75
2024/01/06 02:02:18;;;;;;;13.77;6.47;;;;;;;7.99;100.00;100466.13;5268304;28;20020;-75
2024/01/06 02:04:49;;;;;;;14.80;6.43;;;;;;;8.00;100.00;100470.47;5268435;28;20103;-75
2024/01/06 02:07:19;;;;;;;13.07;6.53;;;;;;;7.99;100.00;100460.78;5271018;28;20504;-75
2024/01/06 02:09:50;;;;;;;13.30;6.35;;;;;;;8.01;100.00;100474.78;5270175;28;20384;-75
2024/01/06 02:12:21;;;;;;;17.13;6.85;;;;;;;8.03;100.00;100475.50;5268252;28;20024;-75
2024/01/06 02:14:51;;;;;;;17.77;7.13;;;;;;;8.01;100.00;100482.81;5268639;28;20089;-75
2024/01/06 02:17:22;;;;;;;21.45;7.68;;;;;;;8.00;100.00;100485.66;5268072;28;20028;-75
2024/01/06 02:19:52;;;;;;;22.60;9.18;;;;;;;8.00;100.00;100491.00;5266944;28;20477;-75
2024/01/06 02:22:23;;;;;;;27.48;9.48;;;;;;;7.96;100.00;100494.97;5266188;28;20031;-75
2024/01/06 02:24:54;;;;;;;28.45;11.60;;;;;;;7.92;100.00;100496.28;5268516;28;20020;-75
2024/01/06 02:27:24;;;;;;;25.88;11.43;;;;;;;7.90;100.00;100499.13;5270090;28;20096;-75
2024/01/06 02:29:54;;;;;;;27.85;11.25;;;;;;;7.91;100.00;100498.13;5266059;28;20049;-75
2024/01/06 02:32:25;;;;;;;34.10;11.32;;;;;;;7.91;100.00;100500.78;5265443;28;20366;-75
2024/01/06 02:34:55;;;;;;;32.95;13.10;;;;;;;7.90;100.00;100496.44;5266162;28;20388;-75
2024/01/06 02:37:26;;;;;;;33.05;12.32;;;;;;;7.88;100.00;100501.13;5267533;28;20546;-75
2024/01/06 02:39:56;;;;;;;33.33;12.48;;;;;;;7.87;100.00;100511.94;5267944;28;20707;-75
2024/01/06 02:42:27;;;;;;;40.42;14.57;;;;;;;7.86;100.00;100513.78;5265460;28;20020;-75
2024/01/06 02:44:57;;;;;;;38.35;13.07;;;;;;;7.84;100.00;100521.13;5268426;28;20028;-75
2024/01/06 02:47:28;;;;;;;38.55;13.68;;;;;;;7.85;100.00;100530.78;5268546;28;20509;-75
2024/01/06 02:49:59;;;;;;;35.63;12.95;;;;;;;7.86;100.00;100534.31;5268683;28;20031;-75
2024/01/06 02:52:29;;;;;;;40.08;13.95;;;;;;;7.86;100.00;100528.97;5268079;28;20026;-75
2024/01/06 02:55:00;;;;;;;33.42;13.30;;;;;;;7.89;100.00;100539.34;5267516;28;20031;-75
2024/01/06 02:57:31;;;;;;;35.67;15.00;;;;;;;7.87;100.00;100550.16;5264808;28;20017;-75
2024/01/06 03:00:03;;;;;;;42.42;13.77;;;;;;;7.85;100.00;100546.81;5261098;28;20413;-75
2024/01/06 03:02:35;;;;;;;36.30;14.52;;;;;;;7.84;100.00;100550.50;5265984;28;20031;-75
2024/01/06 03:05:06;;;;;;;36.80;14.60;;;;;;;7.82;100.00;100555.13;5265399;28;20072;-75
2024/01/06 03:07:37;;;;;;;38.25;14.98;;;;;;;7.84;100.00;100557.66;5267403;28;20023;-74
2024/01/06 03:10:08;;;;;;;44.65;14.30;;;;;;;7.83;100.00;100555.97;5265477;28;20032;-74
2024/01/06 03:12:39;;;;;;;37.95;14.38;;;;;;;7.77;100.00;100552.09;5266570;28;20077;-74
2024/01/06 03:15:11;;;;;;;39.10;14.35;;;;;;;7.76;100.00;100561.09;5267923;28;20051;-75
2024/01/06 03:17:41;;;;;;;36.55;14.38;;;;;;;7.75;100.00;100562.94;5267227;28;20396;-75
2024/01/06 03:20:12;;;;;;;42.17;16.02;;;;;;;7.77;100.00;100563.59;5264707;28;20040;-75
2024/01/06 03:22:43;;;;;;;42.28;17.05;;;;;;;7.76;100.00;100563.78;5264807;28;20038;-75
2024/01/06 03:25:13;;;;;;;43.20;16.58;;;;;;;7.75;100.00;100570.13;5265481;28;20028;-75
2024/01/06 03:27:44;;;;;;;41.92;15.88;;;;;;;7.77;100.00;100571.63;5268136;28;20027;-75
2024/01/06 03:30:15;;;;;;;39.17;16.23;;;;;;;7.78;100.00;100570.66;5266468;28;20032;-75
2024/01/06 03:32:45;;;;;;;42.63;16.67;;;;;;;7.81;100.00;100576.66;5267636;28;20385;-75
2024/01/06 03:35:16;;;;;;;36.03;15.05;;;;;;;7.75;100.00;100576.28;5267898;28;20035;-75
2024/01/06 03:37:46;;;;;;;36.50;15.30;;;;;;;7.72;100.00;100576.59;5266665;28;20598;-75
2024/01/06 03:40:17;;;;;;;34.78;14.95;;;;;;;7.65;100.00;100575.53;5266461;28;20032;-75
2024/01/06 03:42:47;;;;;;;35.88;13.90;;;;;;;7.66;100.00;100579.03;5265085;28;20031;-75
2024/01/06 03:45:18;;;;;;;38.72;13.60;;;;;;;7.60;100.00;100579.66;5265804;28;20111;-75
2024/01/06 03:47:48;;;;;;;31.10;13.25;;;;;;;7.56;100.00;100581.78;5266019;28;20036;-75
2024/01/06 03:50:19;;;;;;;36.90;13.60;;;;;;;7.50;100.00;100588.59;5267187;28;20058;-75
2024/01/06 03:52:49;;;;;;;29.77;11.65;;;;;;;7.48;100.00;100587.91;5263853;28;20024;-75
2024/01/06 03:55:20;;;;;;;34.50;12.18;;;;;;;7.49;100.00;100589.59;5266229;28;20092;-75
2024/01/06 03:57:50;;;;;;;28.40;12.70;;;;;;;7.50;100.00;100590.41;5268614;28;20505;-74
2024/01/06 04:00:21;;;;;;;26.63;10.52;;;;;;;7.39;100.00;100590.66;5267385;28;20032;-75
2024/01/06 04:02:51;;;;;;;29.80;10.98;;;;;;;7.39;100.00;100602.16;5268028;28;20035;-74
2024/01/06 04:05:22;;;;;;;22.17;9.52;;;;;;;7.39;100.00;100599.50;5269191;28;20517;-75
2024/01/06 04:07:53;;;;;;;25.20;9.52;;;;;;;7.33;100.00;100599.25;5267054;28;20036;-74
2024/01/06 04:10:23;;;;;;;24.73;10.15;;;;;;;7.34;100.00;100608.94;5265848;28;20035;-74
2024/01/06 04:12:54;;;;;;;23.58;9.23;;;;;;;7.28;100.00;100602.38;5265444;28;20378;-74
2024/01/06 04:15:24;;;;;;;26.40;9.88;;;;;;;7.28;100.00;100610.41;5268846;28;20044;-75
2024/01/06 04:17:55;;;;;;;20.08;9.98;;;;;;;7.33;100.00;100620.59;5267700;28;20036;-74
2024/01/06 04:20:25;;;;;;;21.25;9.63;;;;;;;7.36;100.00;100614.97;5268396;28;20076;-74
2024/01/06 04:22:56;;;;;;;26.38;11.18;;;;;;;7.35;100.00;100613.28;5264452;28;20028;-75
2024/01/06 04:25:26;;;;;;;23.95;9.90;;;;;;;7.25;100.00;100614.19;5268617;28;20481;-75
2024/01/06 04:27:57;;;;;;;20.70;9.18;;;;;;;7.25;100.00;100624.84;5264442;28;20059;-75
2024/01/06 04:30:27;;;;;;;23.50;9.80;;;;;;;7.27;100.00;100622.03;5266955;28;20481;-77
2024/01/06 04:32:58;;;;;;;23.70;9.85;;;;;;;7.22;100.00;100626.97;5249671;28;20024;-75
2024/01/06 04:35:28;;;;;;;25.75;11.38;;;;;;;7.19;100.00;100627.31;5268041;28;20085;-75
2024/01/06 04:37:59;;;;;;;22.75;11.60;;;;;;;7.22;100.00;100625.16;5265648;28;20024;-75
2024/01/06 04:40:30;;;;;;;25.75;10.85;;;;;;;7.22;100.00;100637.66;5266206;28;20036;-75
2024/01/06 04:43:00;;;;;;;23.95;10.57;;;;;;;7.20;100.00;100636.97;5263459;28;20021;-76
2024/01/06 04:45:30;;;;;;;25.95;11.15;;;;;;;7.19;100.00;100636.13;5267446;28;20023;-75
2024/01/06 04:48:01;;;;;;;22.13;11.40;;;;;;;7.15;100.00;100645.44;5266429;28;20051;-75
2024/01/06 04:50:31;;;;;;;25.20;11.85;;;;;;;7.19;100.00;100645.97;5267042;28;20027;-75
2024/01/06 04:53:02;;;;;;;30.02;12.75;;;;;;;7.15;100.00;100649.94;5265365;28;20032;-75
2024/01/06 04:55:32;;;;;;;26.67;12.68;;;;;;;7.17;100.00;100654.09;5271231;28;20753;-75
2024/01/06 04:58:03;;;;;;;33.05;12.50;;;;;;;7.18;100.00;100647.81;5268479;28;20561;-75
2024/01/06 05:00:36;;;;;;;28.40;12.50;;;;;;;7.16;100.00;100652.44;5271156;28;20023;-75
2024/01/06 05:03:06;;;;;;;33.67;14.55;;;;;;;7.15;100.00;100647.25;5271995;28;20477;-75
2024/01/06 05:05:37;;;;;;;32.05;14.25;;;;;;;7.13;100.00;100657.22;5272179;28;20035;-75
2024/01/06 05:08:07;;;;;;;35.67;14.93;;;;;;;7.15;100.00;100672.09;5270456;28;20039;-75
2024/01/06 05:10:38;;;;;;;32.17;14.55;;;;;;;7.17;100.00;100671.94;5269499;28;20400;-75
2024/01/06 05:13:08;;;;;;;31.13;13.77;;;;;;;7.15;100.00;100673.94;5270149;28;20024;-76
2024/01/06 05:15:39;;;;;;;33.75;14.70;;;;;;;7.12;100.00;100671.56;5272698;28;20122;-75
2024/01/06 05:18:09;;;;;;;27.23;13.30;;;;;;;7.07;100.00;100669.31;5270171;28;20038;-75
2024/01/06 05:20:40;;;;;;;31.33;15.45;;;;;;;7.00;100.00;100671.75;5268602;28;20469;-76
2024/01/06 05:23:11;;;;;;;35.30;15.85;;;;;;;6.96;100.00;100681.03;5268272;28;20128;-75
2024/01/06 05:25:41;;;;;;;34.33;14.55;;;;;;;6.96;100.00;100683.69;5271332;28;20637;-75
2024/01/06 05:28:12;;;;;;;35.70;13.80;;;;;;;6.90;100.00;100676.28;5270194;28;20024;-75
2024/01/06 05:30:43;;;;;;;41.15;15.02;;;;;;;6.91;100.00;100685.97;5270080;28;20019;-75
2024/01/06 05:33:14;;;;;;;30.75;13.52;;;;;;;6.94;100.00;100691.00;5270142;28;20043;-75
2024/01/06 05:35:45;;;;;;;29.63;14.20;;;;;;;6.91;100.00;100695.78;5271739;28;20103;-75
2024/01/06 05:38:17;;;;;;;33.17;14.98;;;;;;;6.93;100.00;100700.00;5270388;28;20031;-75
2024/01/06 05:40:47;;;;;;;27.30;12.50;;;;;;;6.91;100.00;100703.78;5269808;28;20031;-75
2024/01/06 05:43:19;;;;;;;30.55;13.48;;;;;;;6.91;100.00;100701.13;5269603;28;20044;-75
2024/01/06 05:45:49;;;;;;;28.27;11.77;;;;;;;6.87;100.00;100705.91;5263367;28;20042;-75
2024/01/06 05:48:20;;;;;;;26.10;11.73;;;;;;;6.79;100.00;100711.13;5270538;28;20039;-75
2024/01/06 05:50:50;;;;;;;29.20;12.70;;;;;;;6.82;100.00;100724.16;5266422;28;20063;-75
2024/01/06 05:53:21;;;;;;;19.98;10.35;;;;;;;6.69;100.00;100724.50;5271399;28;20038;-75
2024/01/06 05:55:52;;;;;;;19.98;10.05;;;;;;;6.73;100.00;100725.91;5269909;28;20031;-75
2024/01/06 05:58:22;;;;;;;15.20;8.15;;;;;;;6.65;100.00;100728.44;5271708;28;20036;-75
2024/01/06 06:00:53;;;;;;;11.15;6.05;;;;;;;6.51;100.00;100725.38;5266418;28;20465;-75
2024/01/06 06:03:23;;;;;;;11.60;4.90;;;;;;;6.42;100.00;100729.72;5266805;28;20031;-75
2024/01/06 06:05:54;;;;;;;11.73;5.22;;;;;;;6.44;100.00;100725.09;5269670;28;20019;-74
2024/01/06 06:08:24;;;;;;;14.10;5.43;;;;;;;6.47;100.00;100735.47;5276217;28;20396;-75
2024/01/06 06:11:01;;;;;;;10.23;6.10;;;;;;;6.55;100.00;100745.44;5274199;28;20024;-75
2024/01/06 06:13:31;;;;;;;10.65;6.28;;;;;;;6.51;100.00;100742.19;5277475;28;20497;-75
2024/01/06 06:16:02;;;;;;;12.55;6.40;;;;;;;6.46;100.00;100747.13;5276522;28;20108;-74
2024/01/06 06:18:33;;;;;;;13.27;7.90;;;;;;;6.46;100.00;100755.09;5272129;28;20039;-74
2024/01/06 06:21:04;;;;;;;13.05;6.97;;;;;;;6.46;100.00;100755.94;5262541;28;20073;-74
2024/01/06 06:23:34;;;;;;;13.75;7.38;;;;;;;6.44;100.00;100757.09;5278486;28;20034;-75
2024/01/06 06:26:06;;;;;;;12.55;7.18;;;;;;;6.37;100.00;100759.44;5280413;28;20032;-74
2024/01/06 06:28:37;;;;;;;16.13;7.53;;;;;;;6.42;100.00;100772.34;5273236;28;20031;-75
2024/01/06 06:31:07;;;;;;;16.27;7.13;;;;;;;6.34;100.00;100770.41;5266721;28;20374;-74
2024/01/06 06:33:39;;;;;;;15.32;7.57;;;;;;;6.38;100.00;100779.81;5272323;28;20059;-74
2024/01/06 06:36:10;;;;;;;15.07;8.55;;;;;;;6.37;100.00;100788.75;5274136;28;20118;-76
2024/01/06 06:38:40;;;;;;;16.02;7.82;;;;;;;6.31;100.00;100789.34;5271228;28;20370;-76
2024/01/06 06:41:11;;;;;;;13.82;7.88;;;;;;;6.35;100.00;100788.06;5269103;28;20077;-76
2024/01/06 06:43:42;;;;;;;22.33;9.60;;;;;;;6.37;100.00;100794.09;5274375;28;20020;-75
2024/01/06 06:46:12;;;;;;;18.85;8.07;;;;;;;6.38;100.00;100794.97;5265803;28;20538;-76
2024/01/06 06:48:42;;;;;;;20.17;10.27;;;;;;;6.29;100.00;100804.63;5265903;28;20103;-76
2024/01/06 06:51:13;;;;;;;23.92;10.90;;;;;;;6.27;100.00;100811.91;5264244;28;20503;-76
2024/01/06 06:53:43;;;;;;;22.77;11.43;;;;;;;6.29;100.00;100815.28;5275354;28;20032;-76
2024/01/06 06:56:17;;;;;;;25.77;11.90;;;;;;;6.31;100.00;100815.97;5270778;28;20032;-74
2024/01/06 06:58:47;;;;;;;24.88;11.60;;;;;;;6.24;100.00;100820.19;5268253;28;20034;-75
2024/01/06 07:01:18;;;;;;;31.58;13.30;;;;;;;6.23;100.00;100822.03;5277212;28;20106;-75
2024/01/06 07:03:48;;;;;;;32.17;12.68;;;;;;;6.22;100.00;100828.34;5254147;28;20082;-75
2024/01/06 07:06:19;;;;;;;27.38;12.43;;;;;;;6.25;100.00;100835.19;5275368;28;20031;-75
2024/01/06 07:08:50;;;;;;;30.50;12.52;;;;;;;6.24;100.00;100836.19;5261876;27;20024;-75
2024/01/06 07:11:20;;;;;;;26.02;12.50;;;;;;;6.23;100.00;100839.81;5273133;28;20024;-75
2024/01/06 07:13:51;;;;;;;25.40;11.98;;;;;;;6.22;100.00;100840.78;5265448;28;20487;-75
2024/01/06 07:16:21;;;;;;;27.02;12.13;;;;;;;6.26;100.00;100849.34;5266758;28;20081;-75
2024/01/06 07:18:52;;;;;;;31.23;12.73;;;;;;;6.23;100.00;100850.47;5262889;28;20125;-75
2024/01/06 07:21:23;;;;;;;30.42;12.73;;;;;;;6.24;100.00;100852.16;5258095;28;20032;-74
2024/01/06 07:23:54;;;;;;;27.88;13.05;;;;;;;6.22;100.00;100862.09;5275617;28;20016;-75
2024/01/06 07:26:24;;;;;;;27.67;12.73;;;;;;;6.17;100.00;100856.34;5269505;28;20039;-75
2024/01/06 07:28:55;;;;;;;27.13;12.25;;;;;;;6.14;100.00;100864.63;5266823;28;20028;-75
2024/01/06 07:31:26;;;;;;;23.33;10.85;;;;;;;6.12;100.00;100866.56;5264933;28;20024;-75
2024/01/06 07:33:57;;;;;;;30.08;11.73;;;;;;;6.14;100.00;100872.63;5266796;28;20146;-75
2024/01/06 07:36:27;;;;;;;30.10;12.23;;;;;;;6.11;100.00;100875.53;5266353;28;20036;-75
2024/01/06 07:38:58;;;;;;;27.48;12.77;;;;;;;6.07;100.00;100882.13;5264397;28;20508;-75
2024/01/06 07:41:30;;;;;;;28.13;11.90;;;;;;;6.05;100.00;100889.41;5269465;28;20058;-75
2024/01/06 07:44:02;;;;;;;24.70;10.75;;;;;;;6.06;100.00;100891.09;5262938;28;20516;-75
2024/01/06 07:46:33;;;;;;;26.60;11.18;;;;;;;6.05;100.00;100886.75;5264633;28;20149;-75
2024/01/06 07:49:04;;;;;;;25.23;10.27;;;;;;;6.02;100.00;100887.00;5272267;28;20122;-74
2024/01/06 07:51:35;;;;;;;25.25;11.70;;;;;;;6.02;100.00;100897.66;5272705;28;20028;-75
2024/01/06 07:54:08;;;;;;;25.95;11.05;;;;;;;6.02;100.00;100897.66;5274436;28;20093;-74
2024/01/06 07:56:39;;;;;;;25.20;11.02;;;;;;;6.04;100.00;100906.38;5259246;28;20027;-75
2024/01/06 07:59:10;;;;;;;27.65;11.35;;;;;;;6.02;100.00;100910.97;5264520;28;20110;-75
2024/01/06 08:01:42;;;;;;;22.55;9.27;;;;;;;6.00;100.00;100912.94;5267965;28;20068;-75
2024/01/06 08:04:13;;;;;;;20.48;9.02;;;;;;;5.96;100.00;100923.00;5274891;28;20031;-74
2024/01/06 08:06:44;;;;;;;17.98;8.98;;;;;;;5.99;100.00;100921.91;5269320;28;20076;-75
2024/01/06 08:09:14;;;;;;;24.85;8.80;;;;;;;5.95;100.00;100929.31;5269238;28;20032;-74
2024/01/06 08:11:47;;;;;;;22.25;9.10;;;;;;;5.97;100.00;100933.56;5268781;28;20023;-75
2024/01/06 08:14:18;;;;;;;22.10;9.20;;;;;;;6.04;100.00;100935.66;5280062;27;20034;-75
2024/01/06 08:16:48;;;;;;;23.42;9.55;;;;;;;5.99;100.00;100943.22;5270489;28;20446;-75
2024/01/06 08:19:19;;;;;;;15.80;7.13;;;;;;;5.96;100.00;100942.50;5266931;28;20035;-75
2024/01/06 08:21:49;;;;;;;16.30;7.22;;;;;;;6.02;100.00;100945.59;5270452;28;20024;-75
2024/01/06 08:24:20;;;;;;;18.05;7.38;;;;;;;5.94;100.00;100941.78;5270389;28;20030;-75
2024/01/06 08:26:50;;;;;;;15.70;7.15;;;;;;;6.01;100.00;100954.56;5251051;28;20114;-74
2024/01/06 08:29:21;;;;;;;17.08;6.75;;;;;;;5.91;100.00;100952.69;5273083;28;20024;-75
2024/01/06 08:31:52;;;;;;;14.20;5.90;;;;;;;5.90;100.00;100956.31;5274593;28;20051;-75
2024/01/06 08:34:22;;;;;;;16.05;6.93;;;;;;;5.97;100.00;100965.50;5276061;28;20030;-75
2024/01/06 08:36:53;;;;;;;15.48;6.30;;;;;;;5.91;100.00;100974.00;5269912;28;20109;-75
2024/01/06 08:39:24;;;;;;;17.30;6.57;;;;;;;5.99;100.00;100980.50;5271182;28;20024;-75
2024/01/06 08:41:55;;;;;;;16.10;6.57;;;;;;;6.03;100.00;100972.13;5274441;28;20080;-75
2024/01/06 08:44:25;;;;;;;18.65;7.30;;;;;;;6.04;100.00;100979.13;5254598;28;20031;-75
2024/01/06 08:46:56;;;;;;;17.35;6.15;;;;;;;6.09;100.00;100986.72;5275719;28;20024;-75
2024/01/06 08:49:26;;;;;;;16.52;6.55;;;;;;;6.06;100.00;100994.97;5271379;28;20030;-75
2024/01/06 08:51:58;;;;;;;16.20;5.47;;;;;;;6.03;100.00;100993.41;5271975;28;20028;-75
2024/01/06 08:54:29;;;;;;;14.23;5.95;;;;;;;6.03;100.00;100995.25;5277603;28;20028;-75
2024/01/06 08:56:59;;;;;;;17.40;6.60;;;;;;;6.09;100.00;101008.88;5265481;28;20023;-75
2024/01/06 08:59:30;;;;;;;18.05;6.15;;;;;;;6.02;100.00;101006.84;5271214;28;20034;-75
2024/01/06 09:02:01;;;;;;;13.82;5.78;;;;;;;5.97;100.00;101005.44;5275425;28;20047;-75
2024/01/06 09:04:31;;;;;;;12.52;5.15;;;;;;;5.97;100.00;101013.44;5271875;28;20764;-75
2024/01/06 09:07:02;;;;;;;14.88;5.43;;;;;;;6.03;100.00;101009.41;5275235;27;20031;-75
2024/01/06 09:09:32;;;;;;;15.32;4.97;;;;;;;6.06;100.00;101017.09;5279443;28;20027;-75
2024/01/06 09:12:03;;;;;;;13.90;5.82;;;;;;;5.97;100.00;101018.78;5269008;28;20020;-75
2024/01/06 09:14:34;;;;;;;9.93;5.30;;;;;;;6.04;100.00;101020.91;5277396;28;20515;-75
2024/01/06 09:17:04;;;;;;;10.25;4.78;;;;;;;5.99;100.00;101036.44;5258588;28;20018;-75
2024/01/06 09:19:35;;;;;;;10.95;4.85;;;;;;;5.95;100.00;101034.00;5277060;28;20397;-75
2024/01/06 09:22:05;;;;;;;10.85;4.95;;;;;;;5.95;100.00;101043.81;5272362;28;20069;-75
2024/01/06 09:24:36;;;;;;;10.90;5.07;;;;;;;5.98;100.00;101038.25;5271985;28;20544;-75
2024/01/06 09:27:06;;;;;;;13.48;5.53;;;;;;;5.95;100.00;101043.81;5272867;28;20028;-75
2024/01/06 09:29:37;;;;;;;12.25;5.35;;;;;;;5.97;100.00;101049.84;5271409;28;20481;-75
2024/01/06 09:32:07;;;;;;;14.93;5.78;;;;;;;6.00;100.00;101054.94;5276793;28;20051;-75
2024/01/06 09:34:37;;;;;;;15.43;6.13;;;;;;;5.97;100.00;101056.06;5277544;28;20031;-75
2024/01/06 09:37:08;;;;;;;12.98;6.03;;;;;;;5.96;100.00;101057.00;5267707;28;20442;-75
2024/01/06 09:39:39;;;;;;;10.75;5.63;;;;;;;6.00;100.00;101070.06;5269805;28;20031;-75
2024/01/06 09:42:11;;;;;;;15.23;5.80;;;;;;;5.87;100.00;101068.44;5271116;28;20110;-75
2024/01/06 09:44:41;;;;;;;12.40;6.28;;;;;;;5.89;100.00;101071.78;5272274;28;20501;-75
2024/01/06 09:47:12;;;;;;;13.52;6.35;;;;;;;5.87;100.00;101078.22;5267822;28;20114;-75
2024/01/06 09:49:48;;;;;;;13.52;7.00;;;;;;;5.86;100.00;101082.69;5256263;28;20205;-75
2024/01/06 09:52:22;;;;;;;14.10;6.05;;;;;;;5.87;100.00;101084.41;5266023;28;20890;-75
2024/01/06 09:54:54;;;;;;;16.45;5.80;;;;;;;5.86;100.00;101088.03;5270720;28;20040;-75
2024/01/06 09:57:24;;;;;;;15.77;6.63;;;;;;;5.88;100.00;101091.41;5273110;28;20024;-75
2024/01/06 09:59:56;;;;;;;17.45;6.55;;;;;;;5.87;100.00;101097.72;5273356;27;20553;-75
2024/01/06 10:02:26;;;;;;;21.65;7.30;;;;;;;5.92;100.00;101102.66;5277982;28;20480;-75
2024/01/06 10:04:58;;;;;;;20.33;7.10;;;;;;;5.97;100.00;101105.78;5269751;28;20020;-74
2024/01/06 10:07:28;;;;;;;15.95;6.85;;;;;;;5.98;100.00;101110.16;5253930;28;20031;-75
2024/01/06 10:09:59;;;;;;;13.82;6.45;;;;;;;6.01;100.00;101109.03;5271897;28;20061;-75
2024/01/06 10:12:29;;;;;;;17.63;6.43;;;;;;;6.03;100.00;101115.09;5277276;28;20039;-75
2024/01/06 10:15:00;;;;;;;15.32;7.00;;;;;;;6.07;100.00;101121.81;5278154;28;20027;-75
2024/01/06 10:17:30;;;;;;;15.50;7.30;;;;;;;6.05;100.00;101115.78;5271752;28;20115;-75
2024/01/06 10:20:02;;;;;;;15.80;7.03;;;;;;;6.02;100.00;101122.22;5270598;28;20059;-75
2024/01/06 10:22:36;;;;;;;16.10;6.60;;;;;;;6.03;100.00;101125.75;5274755;28;20028;-75
2024/01/06 10:25:08;;;;;;;19.48;6.72;;;;;;;6.01;100.00;101133.00;5252815;28;20143;-75
2024/01/06 10:27:39;;;;;;;13.82;7.18;;;;;;;5.94;100.00;101130.88;5273174;28;20031;-74
2024/01/06 10:30:12;;;;;;;15.82;7.47;;;;;;;5.95;100.00;101135.22;5268242;28;20434;-75
2024/01/06 10:32:43;;;;;;;16.40;6.70;;;;;;;5.97;100.00;101135.94;5266452;28;20110;-75
2024/01/06 10:35:15;;;;;;;14.25;6.53;;;;;;;6.02;100.00;101137.34;5273886;28;20057;-75
2024/01/06 10:37:47;;;;;;;15.45;7.47;;;;;;;6.02;100.00;101138.19;5271464;28;20031;-75
2024/01/06 10:40:18;;;;;;;13.40;6.85;;;;;;;6.05;100.00;101150.41;5263426;28;20059;-75
2024/01/06 10:42:48;;;;;;;23.30;9.52;;;;;;;6.06;100.00;101152.94;5266410;28;20512;-75
2024/01/06 10:45:19;;;;;;;13.75;6.10;;;;;;;6.11;100.00;101150.75;5267830;28;20077;-75
2024/01/06 10:47:50;;;;;;;15.77;6.93;;;;;;;6.10;100.00;101146.38;5246069;28;20031;-75
2024/01/06 10:50:22;;;;;;;12.35;6.10;;;;;;;6.14;100.00;101152.31;5269630;28;20054;-75
2024/01/06 10:52:53;;;;;;;20.45;7.30;;;;;;;6.12;100.00;101152.41;5265144;28;20039;-75
2024/01/06 10:55:25;;;;;;;17.85;5.88;;;;;;;6.18;100.00;101151.94;5271136;28;20282;-75
2024/01/06 10:57:57;;;;;;;13.10;5.93;;;;;;;6.17;100.00;101155.53;5273345;27;20019;-75
2024/01/06 11:00:27;;;;;;;11.95;5.07;;;;;;;6.18;100.00;101153.75;5277103;28;20063;-75
2024/01/06 11:02:59;;;;;;;11.95;5.25;;;;;;;6.18;100.00;101156.41;5267352;28;20054;-75
2024/01/06 11:05:30;;;;;;;13.75;5.40;;;;;;;6.09;100.00;101163.34;5268380;28;20028;-74
2024/01/06 11:08:01;;;;;;;8.90;5.03;;;;;;;6.12;100.00;101156.91;5270856;28;20117;-75
2024/01/06 11:10:33;;;;;;;9.93;4.90;;;;;;;6.12;100.00;101159.56;5266960;28;20747;-75
2024/01/06 11:13:13;;;;;;;13.98;6.07;;;;;;;6.02;100.00;101159.50;5266200;28;20036;-75
2024/01/06 11:15:49;;;;;;;10.48;5.53;;;;;;;6.02;100.00;101161.31;5267580;28;20066;-75
2024/01/06 11:18:37;;;;;;;10.70;5.55;;;;;;;6.00;100.00;101163.28;5269512;28;20074;-75
2024/01/06 11:21:12;;;;;;;12.77;5.05;;;;;;;6.02;100.00;101164.81;5272334;28;20034;-75
2024/01/06 11:23:44;;;;;;;10.68;5.45;;;;;;;6.05;100.00;101161.06;5266691;28;20055;-75
2024/01/06 11:26:14;;;;;;;17.27;5.90;;;;;;;5.99;100.00;101169.59;5247904;28;20024;-75
2024/01/06 11:28:46;;;;;;;10.27;5.45;;;;;;;6.04;100.00;101175.38;5276433;28;20626;-75
2024/01/06 11:31:18;;;;;;;10.80;5.32;;;;;;;6.07;100.00;101172.44;5265952;28;20064;-75